createdAt,value
2017-07-12T00:01:33.021Z,7.62
2017-07-12T00:04:00.828Z,8.20
2017-07-12T00:06:28.577Z,8.60
2017-07-12T00:08:57.159Z,7.20
2017-07-12T00:11:25.717Z,8.23
2017-07-12T00:13:53.472Z,8.32
2017-07-12T00:16:21.275Z,8.82
2017-07-12T00:18:49.031Z,7.80
2017-07-12T00:21:16.783Z,8.45
2017-07-12T00:23:45.371Z,8.80
2017-07-12T00:26:13.898Z,9.20
2017-07-12T00:28:41.706Z,8.00
2017-07-12T00:31:10.228Z,7.95
2017-07-12T00:33:37.974Z,8.00
2017-07-12T00:36:05.750Z,6.50
2017-07-12T00:38:33.507Z,7.53
2017-07-12T00:41:01.307Z,8.60
2017-07-12T00:43:29.061Z,7.35
2017-07-12T00:45:56.807Z,7.15
2017-07-12T00:48:24.585Z,6.95
2017-07-12T00:50:52.336Z,6.80
2017-07-12T00:53:20.146Z,7.03
2017-07-12T00:55:47.905Z,7.20
2017-07-12T00:58:16.424Z,8.85
2017-07-12T01:00:44.210Z,7.60
2017-07-12T01:03:11.964Z,7.03
2017-07-12T01:05:39.773Z,6.47
2017-07-12T01:08:07.528Z,7.68
2017-07-12T01:10:36.049Z,6.70
2017-07-12T01:13:03.846Z,8.05
2017-07-12T01:15:31.601Z,6.97
2017-07-12T01:17:59.414Z,5.87
2017-07-12T01:20:27.169Z,5.75
2017-07-12T01:22:54.920Z,7.03
2017-07-12T01:25:23.464Z,6.95
2017-07-12T01:27:51.221Z,5.80
2017-07-12T01:30:19.024Z,6.72
2017-07-12T01:32:46.778Z,5.53
2017-07-12T01:35:15.325Z,6.20
2017-07-12T01:37:43.107Z,6.03
2017-07-12T01:40:11.650Z,5.78
2017-07-12T01:42:39.459Z,5.45
2017-07-12T01:45:07.992Z,5.65
2017-07-12T01:47:35.751Z,5.40
2017-07-12T01:50:03.533Z,6.03
2017-07-12T01:52:31.283Z,5.25
2017-07-12T01:54:59.087Z,5.72
2017-07-12T01:57:27.609Z,4.80
2017-07-12T01:59:55.359Z,5.85
2017-07-12T02:02:23.143Z,5.47
2017-07-12T02:04:50.899Z,4.75
2017-07-12T02:07:18.707Z,4.50
2017-07-12T02:09:47.268Z,5.75
2017-07-12T02:12:15.027Z,5.95
2017-07-12T02:14:42.819Z,5.22
2017-07-12T02:17:11.344Z,5.68
2017-07-12T02:19:39.159Z,7.07
2017-07-12T02:22:07.671Z,5.55
2017-07-12T02:24:35.419Z,6.78
2017-07-12T02:27:04.049Z,5.45
2017-07-12T02:29:31.804Z,5.82
2017-07-12T02:31:59.613Z,6.18
2017-07-12T02:34:27.366Z,6.60
2017-07-12T02:36:55.878Z,6.62
2017-07-12T02:39:23.660Z,5.53
2017-07-12T02:41:51.409Z,6.05
2017-07-12T02:44:19.216Z,5.70
2017-07-12T02:46:46.963Z,6.37
2017-07-12T02:49:14.716Z,6.87
2017-07-12T02:51:42.528Z,6.60
2017-07-12T02:54:10.305Z,6.68
2017-07-12T02:56:38.127Z,6.05
2017-07-12T02:59:05.900Z,6.60
2017-07-12T03:01:34.420Z,6.90
2017-07-12T03:04:02.202Z,6.47
2017-07-12T03:06:29.954Z,6.37
2017-07-12T03:08:57.858Z,6.18
2017-07-12T03:11:25.613Z,6.20
2017-07-12T03:13:53.365Z,5.87
2017-07-12T03:16:21.276Z,5.65
2017-07-12T03:18:49.039Z,6.18
2017-07-12T03:21:16.803Z,6.70
2017-07-12T03:23:44.622Z,5.70
2017-07-12T03:26:12.373Z,6.50
2017-07-12T03:28:40.133Z,6.37
2017-07-12T03:31:07.939Z,6.90
2017-07-12T03:33:35.691Z,5.65
2017-07-12T03:36:04.203Z,5.70
2017-07-12T03:38:31.981Z,4.68
2017-07-12T03:40:59.725Z,5.22
2017-07-12T03:43:27.497Z,5.20
2017-07-12T03:45:55.311Z,5.57
2017-07-12T03:48:23.829Z,4.10
2017-07-12T03:50:51.610Z,5.65
2017-07-12T03:53:19.410Z,5.53
2017-07-12T03:55:47.924Z,4.40
2017-07-12T03:58:15.679Z,4.75
2017-07-12T04:00:43.465Z,4.05
2017-07-12T04:03:11.219Z,4.25
2017-07-12T04:05:38.973Z,4.05
2017-07-12T04:08:06.763Z,4.80
2017-07-12T04:10:34.515Z,4.30
2017-07-12T04:13:02.267Z,3.55
2017-07-12T04:15:30.040Z,4.85
2017-07-12T04:17:57.787Z,5.03
2017-07-12T04:20:25.548Z,4.95
2017-07-12T04:22:53.372Z,5.37
2017-07-12T04:25:21.904Z,4.32
2017-07-12T04:27:49.664Z,4.57
2017-07-12T04:30:17.459Z,6.05
2017-07-12T04:32:45.997Z,4.40
2017-07-12T04:35:13.764Z,4.25
2017-07-12T04:37:41.550Z,4.62
2017-07-12T04:40:09.319Z,4.12
2017-07-12T04:42:37.084Z,4.82
2017-07-12T04:45:04.871Z,4.78
2017-07-12T04:47:32.623Z,4.87
2017-07-12T04:50:01.199Z,5.60
2017-07-12T04:52:29.739Z,7.90
2017-07-12T04:54:57.500Z,4.20
2017-07-12T04:57:25.300Z,5.43
2017-07-12T04:59:53.833Z,5.90
2017-07-12T05:02:21.654Z,4.25
2017-07-12T05:04:50.196Z,4.78
2017-07-12T05:07:17.957Z,5.00
2017-07-12T05:09:45.740Z,5.87
2017-07-12T05:12:14.316Z,6.40
2017-07-12T05:14:42.880Z,6.62
2017-07-12T05:17:10.632Z,4.85
2017-07-12T05:19:38.448Z,5.32
2017-07-12T05:22:06.202Z,4.60
2017-07-12T05:24:34.736Z,4.35
2017-07-12T05:27:02.540Z,5.00
2017-07-12T05:29:30.331Z,4.93
2017-07-12T05:31:58.161Z,5.37
2017-07-12T05:34:26.696Z,4.25
2017-07-12T05:36:54.538Z,5.62
2017-07-12T05:39:22.318Z,5.10
2017-07-12T05:41:50.739Z,4.45
2017-07-12T05:44:19.323Z,4.53
2017-07-12T05:46:47.836Z,3.83
2017-07-12T05:49:15.604Z,6.00
2017-07-12T05:51:43.421Z,5.20
2017-07-12T05:54:11.185Z,4.03
2017-07-12T05:56:38.987Z,4.43
2017-07-12T05:59:06.736Z,4.43
2017-07-12T06:01:34.482Z,3.77
2017-07-12T06:04:02.265Z,4.10
2017-07-12T06:06:30.026Z,4.20
2017-07-12T06:08:57.838Z,4.03
2017-07-12T06:11:25.600Z,3.37
2017-07-12T06:13:53.460Z,4.80
2017-07-12T06:16:21.240Z,4.60
2017-07-12T06:18:49.760Z,5.00
2017-07-12T06:21:17.784Z,5.10
2017-07-12T06:23:45.537Z,3.17
2017-07-12T06:26:13.303Z,4.23
2017-07-12T06:28:41.897Z,4.23
2017-07-12T06:31:10.410Z,3.40
2017-07-12T06:33:38.218Z,4.30
2017-07-12T06:36:05.968Z,3.37
2017-07-12T06:38:33.720Z,4.37
2017-07-12T06:41:01.502Z,5.20
2017-07-12T06:43:29.288Z,3.53
2017-07-12T06:45:57.914Z,3.00
2017-07-12T06:48:25.673Z,4.47
2017-07-12T06:50:53.434Z,3.50
2017-07-12T06:53:21.214Z,7.80
2017-07-12T06:55:48.966Z,4.03
2017-07-12T06:58:16.775Z,4.17
2017-07-12T07:00:45.298Z,5.40
2017-07-12T07:03:13.095Z,4.93
2017-07-12T07:05:40.879Z,5.00
2017-07-12T07:08:09.407Z,4.03
2017-07-12T07:10:37.211Z,5.03
2017-07-12T07:13:05.723Z,3.30
2017-07-12T07:15:33.471Z,3.10
2017-07-12T07:18:01.250Z,4.00
2017-07-12T07:20:29.016Z,2.90
2017-07-12T07:22:56.831Z,4.73
2017-07-12T07:25:24.576Z,3.70
2017-07-12T07:27:52.351Z,3.80
2017-07-12T07:30:20.135Z,3.30
2017-07-12T07:32:47.883Z,3.90
2017-07-12T07:35:16.455Z,2.70
2017-07-12T07:37:44.220Z,3.30
2017-07-12T07:40:12.739Z,3.80
2017-07-12T07:42:40.514Z,3.20
2017-07-12T07:45:08.264Z,3.30
2017-07-12T07:47:36.072Z,2.83
2017-07-12T07:50:03.823Z,3.80
2017-07-12T07:52:31.563Z,4.17
2017-07-12T07:55:00.369Z,3.60
2017-07-12T07:57:28.116Z,3.20
2017-07-12T07:59:55.924Z,3.00
2017-07-12T08:02:24.439Z,3.97
2017-07-12T08:04:52.184Z,3.27
2017-07-12T08:07:19.959Z,3.40
2017-07-12T08:09:47.703Z,3.77
2017-07-12T08:12:15.517Z,3.20
2017-07-12T08:14:43.274Z,2.97
2017-07-12T08:17:11.022Z,3.07
2017-07-12T08:19:38.820Z,4.57
2017-07-12T08:22:07.338Z,3.33
2017-07-12T08:24:35.158Z,4.47
2017-07-12T08:27:02.912Z,3.67
2017-07-12T08:29:30.671Z,4.10
2017-07-12T08:31:58.452Z,3.40
2017-07-12T08:34:26.963Z,3.00
2017-07-12T08:36:54.788Z,3.27
2017-07-12T08:39:23.302Z,4.40
2017-07-12T08:41:51.059Z,2.37
2017-07-12T08:44:18.834Z,3.43
2017-07-12T08:46:46.580Z,3.00
2017-07-12T08:49:14.389Z,3.47
2017-07-12T08:51:42.135Z,2.43
2017-07-12T08:54:09.884Z,2.67
2017-07-12T08:56:37.663Z,2.60
2017-07-12T08:59:05.416Z,2.50
2017-07-12T09:01:33.221Z,2.23
2017-07-12T09:04:01.740Z,2.60
2017-07-12T09:06:29.496Z,2.30
2017-07-12T09:08:57.292Z,2.83
2017-07-12T09:11:25.037Z,3.30
2017-07-12T09:13:52.838Z,3.13
2017-07-12T09:16:20.607Z,4.10
2017-07-12T09:18:49.120Z,2.77
2017-07-12T09:21:16.902Z,1.90
2017-07-12T09:23:44.654Z,2.10
2017-07-12T09:33:35.715Z,3.60
2017-07-12T09:36:03.475Z,3.20
2017-07-12T09:38:31.272Z,2.23
2017-07-12T09:40:59.033Z,2.10
2017-07-12T09:43:26.792Z,2.50
2017-07-12T09:45:55.361Z,3.40
2017-07-12T09:48:23.120Z,3.30
2017-07-12T09:50:51.015Z,3.67
2017-07-12T09:53:18.768Z,2.90
2017-07-12T09:55:47.302Z,2.53
2017-07-12T09:58:15.097Z,3.30
2017-07-12T10:00:42.854Z,3.20
2017-07-12T10:03:10.672Z,2.47
2017-07-12T10:05:38.430Z,2.30
2017-07-12T10:08:06.191Z,2.25
2017-07-12T10:10:33.984Z,2.25
2017-07-12T10:13:01.745Z,2.85
2017-07-12T10:15:29.564Z,3.35
2017-07-12T10:17:57.336Z,3.10
2017-07-12T10:20:25.099Z,2.25
2017-07-12T10:22:52.885Z,2.80
2017-07-12T10:25:20.649Z,2.60
2017-07-12T10:27:48.475Z,2.83
2017-07-12T10:30:16.237Z,2.55
2017-07-12T10:32:44.068Z,2.97
2017-07-12T10:35:11.860Z,2.45
2017-07-12T10:37:39.611Z,2.60
2017-07-12T10:40:08.197Z,2.45
2017-07-12T10:42:35.947Z,3.00
2017-07-12T10:45:04.478Z,2.20
2017-07-12T10:47:32.275Z,2.25
2017-07-12T10:50:00.034Z,2.40
2017-07-12T10:52:28.628Z,2.53
2017-07-12T10:54:57.167Z,2.75
2017-07-12T10:57:24.938Z,2.20
2017-07-12T10:59:52.746Z,2.50
2017-07-12T11:02:20.520Z,2.50
2017-07-12T11:04:48.340Z,2.42
2017-07-12T11:07:16.120Z,4.30
2017-07-12T11:09:44.653Z,1.95
2017-07-12T11:12:12.451Z,2.70
2017-07-12T11:14:40.983Z,2.45
2017-07-12T11:17:08.823Z,2.58
2017-07-12T11:19:36.584Z,2.85
2017-07-12T11:22:04.342Z,2.40
2017-07-12T11:24:32.136Z,2.78
2017-07-12T11:26:59.903Z,3.70
2017-07-12T11:29:27.735Z,3.25
2017-07-12T11:31:55.495Z,2.60
2017-07-12T11:34:23.251Z,3.50
2017-07-12T11:36:51.051Z,3.75
2017-07-12T11:39:18.810Z,2.65
2017-07-12T11:41:46.628Z,2.72
2017-07-12T11:44:14.395Z,3.20
2017-07-12T11:46:42.166Z,2.80
2017-07-12T11:49:09.991Z,2.67
2017-07-12T11:51:37.751Z,2.55
2017-07-12T11:54:05.811Z,2.50
2017-07-12T11:56:33.582Z,2.47
2017-07-12T11:59:02.130Z,3.05
2017-07-12T12:01:29.925Z,2.70
2017-07-12T12:03:58.451Z,3.40
2017-07-12T12:06:26.285Z,2.75
2017-07-12T12:08:54.054Z,2.60
2017-07-12T12:11:21.812Z,2.30
2017-07-12T12:13:49.607Z,2.40
2017-07-12T12:16:17.375Z,2.30
2017-07-12T12:18:45.190Z,2.25
2017-07-12T12:21:13.712Z,1.90
2017-07-12T12:23:41.481Z,1.70
2017-07-12T12:26:09.276Z,1.80
2017-07-12T12:28:37.035Z,2.95
2017-07-12T12:31:04.921Z,3.00
2017-07-12T12:33:33.450Z,3.00
2017-07-12T12:36:01.212Z,2.85
2017-07-12T12:38:29.001Z,2.67
2017-07-12T12:40:56.765Z,3.30
2017-07-12T12:43:24.594Z,3.20
2017-07-12T12:45:52.393Z,2.95
2017-07-12T12:48:20.926Z,3.80
2017-07-12T12:50:48.716Z,2.90
2017-07-12T12:53:16.490Z,2.65
2017-07-12T12:55:44.346Z,2.72
2017-07-12T12:58:12.126Z,2.83
2017-07-12T13:00:40.663Z,4.93
2017-07-12T13:03:08.471Z,3.10
2017-07-12T13:05:39.903Z,2.80
2017-07-12T13:08:07.714Z,3.15
2017-07-12T13:10:35.474Z,3.60
2017-07-12T13:13:03.230Z,3.08
2017-07-12T13:15:31.026Z,3.03
2017-07-12T13:17:58.795Z,3.40
2017-07-12T13:20:26.628Z,4.60
2017-07-12T13:22:54.423Z,3.03
2017-07-12T13:25:22.181Z,4.70
2017-07-12T13:27:49.967Z,4.57
2017-07-12T13:30:17.722Z,6.40
2017-07-12T13:32:45.542Z,5.93
2017-07-12T13:35:13.300Z,4.75
2017-07-12T13:37:41.060Z,4.82
2017-07-12T13:40:08.846Z,4.32
2017-07-12T13:42:36.605Z,4.75
2017-07-12T13:45:04.427Z,3.72
2017-07-12T13:47:32.196Z,3.10
2017-07-12T13:49:59.953Z,3.08
2017-07-12T13:52:27.739Z,3.58
2017-07-12T13:54:55.494Z,4.57
2017-07-12T13:57:23.318Z,4.18
2017-07-12T13:59:51.841Z,3.80
2017-07-12T14:02:19.607Z,3.75
2017-07-12T14:04:47.412Z,2.70
2017-07-12T14:07:15.166Z,4.85
2017-07-12T14:09:42.984Z,3.45
2017-07-12T14:12:10.762Z,4.20
2017-07-12T14:14:38.526Z,3.58
2017-07-12T14:17:06.315Z,3.28
2017-07-12T14:19:34.089Z,3.55
2017-07-12T14:22:01.903Z,4.18
2017-07-12T14:24:29.660Z,4.05
2017-07-12T14:26:57.422Z,4.00
2017-07-12T14:29:25.239Z,3.95
2017-07-12T14:31:53.764Z,4.95
2017-07-12T14:34:21.604Z,3.55
2017-07-12T14:36:49.364Z,4.53
2017-07-12T14:39:17.128Z,3.10
2017-07-12T14:41:44.915Z,4.45
2017-07-12T14:44:12.663Z,4.00
2017-07-12T14:46:40.537Z,3.35
2017-07-12T14:49:08.286Z,3.80
2017-07-12T14:51:36.036Z,4.40
2017-07-12T14:54:03.819Z,4.57
2017-07-12T14:56:31.567Z,2.80
2017-07-12T14:58:59.377Z,3.78
2017-07-12T15:01:27.135Z,3.83
2017-07-12T15:03:54.887Z,3.97
2017-07-12T15:06:22.670Z,3.97
2017-07-12T15:08:50.419Z,3.90
2017-07-12T15:11:18.238Z,2.95
2017-07-12T15:13:45.996Z,4.25
2017-07-12T15:16:13.752Z,3.47
2017-07-12T15:18:41.531Z,3.97
2017-07-12T15:21:09.282Z,3.47
2017-07-12T15:23:37.097Z,3.40
2017-07-12T15:26:04.852Z,3.42
2017-07-12T15:28:32.607Z,3.40
2017-07-12T15:31:00.403Z,3.95
2017-07-12T15:33:28.930Z,5.62
2017-07-12T15:35:56.901Z,3.45
2017-07-12T15:38:25.049Z,4.00
2017-07-12T15:40:52.835Z,3.55
2017-07-12T15:43:20.644Z,3.08
2017-07-12T15:45:49.175Z,3.47
2017-07-12T15:48:17.017Z,4.62
2017-07-12T15:50:45.364Z,4.60
2017-07-12T15:53:13.301Z,3.75
2017-07-12T15:55:41.115Z,6.10
2017-07-12T15:58:08.876Z,6.03
2017-07-12T16:00:36.711Z,5.03
2017-07-12T16:03:05.274Z,4.25
2017-07-12T16:05:33.082Z,3.80
2017-07-12T16:08:00.951Z,3.67
2017-07-12T16:10:28.750Z,3.80
2017-07-12T16:12:56.601Z,3.65
2017-07-12T16:15:24.418Z,3.42
2017-07-12T16:17:52.507Z,3.33
2017-07-12T16:20:20.363Z,3.62
2017-07-12T16:22:48.147Z,3.72
2017-07-12T16:25:17.396Z,3.40
2017-07-12T16:27:45.305Z,3.40
2017-07-12T16:30:13.074Z,4.28
2017-07-12T16:32:41.149Z,4.80
2017-07-12T16:35:08.915Z,3.85
2017-07-12T16:37:36.747Z,4.43
2017-07-12T16:40:04.520Z,5.60
2017-07-12T16:42:32.666Z,5.35
2017-07-12T16:45:01.265Z,5.50
2017-07-12T16:47:29.509Z,6.05
2017-07-12T16:49:58.543Z,5.70
2017-07-12T16:52:26.406Z,5.45
2017-07-12T16:54:54.180Z,6.10
2017-07-12T16:57:21.980Z,4.82
2017-07-12T16:59:54.375Z,6.68
2017-07-12T17:02:30.760Z,5.25
2017-07-12T17:04:58.559Z,5.68
2017-07-12T17:07:26.326Z,5.00
2017-07-12T17:09:54.898Z,5.37
2017-07-12T17:12:22.844Z,5.47
2017-07-12T17:14:51.502Z,5.72
2017-07-12T17:17:19.402Z,4.95
2017-07-12T17:19:47.784Z,5.85
2017-07-12T17:22:15.571Z,4.60
2017-07-12T17:24:44.095Z,4.57
2017-07-12T17:27:11.922Z,5.07
2017-07-12T17:29:40.448Z,5.72
2017-07-12T17:32:08.207Z,5.37
2017-07-12T17:34:36.001Z,5.85
2017-07-12T17:37:03.759Z,6.30
2017-07-12T17:39:32.421Z,8.05
2017-07-12T17:42:00.206Z,6.50
2017-07-12T17:44:27.968Z,7.43
2017-07-12T17:46:55.777Z,8.25
2017-07-12T17:49:23.538Z,7.93
2017-07-12T17:51:51.419Z,9.93
2017-07-12T17:54:19.341Z,10.77
2017-07-12T17:56:47.075Z,9.73
2017-07-12T17:59:14.874Z,9.00
2017-07-12T18:01:44.424Z,9.13
2017-07-12T18:04:12.281Z,9.38
2017-07-12T18:06:40.046Z,11.00
2017-07-12T18:09:07.902Z,12.73
2017-07-12T18:11:35.704Z,11.25
2017-07-12T18:14:03.476Z,12.23
2017-07-12T18:16:32.064Z,13.93
2017-07-12T18:18:59.831Z,13.48
2017-07-12T18:21:27.600Z,14.98
2017-07-12T18:23:55.444Z,13.80
2017-07-12T18:26:23.968Z,14.52
2017-07-12T18:28:51.730Z,12.82
2017-07-12T18:31:19.548Z,14.35
2017-07-12T18:33:48.074Z,13.30
2017-07-12T18:36:15.851Z,13.88
2017-07-12T18:38:43.647Z,13.25
2017-07-12T18:41:22.393Z,14.90
2017-07-12T18:43:50.208Z,14.27
2017-07-12T18:46:17.969Z,14.05
2017-07-12T18:51:18.853Z,14.15
2017-07-12T18:53:46.632Z,14.85
2017-07-12T18:56:14.458Z,14.65
2017-07-12T18:58:42.991Z,14.60
2017-07-12T19:01:10.751Z,13.77
2017-07-12T19:03:38.564Z,14.90
2017-07-12T19:06:07.108Z,16.10
2017-07-12T19:08:35.037Z,17.55
2017-07-12T19:11:02.943Z,20.10
2017-07-12T19:13:30.796Z,16.35
2017-07-12T19:15:58.601Z,16.75
2017-07-12T19:18:27.138Z,16.55
2017-07-12T19:20:54.964Z,16.25
2017-07-12T19:23:22.752Z,17.08
2017-07-12T19:25:50.523Z,18.05
2017-07-12T19:28:18.532Z,14.43
2017-07-12T19:30:47.072Z,17.37
2017-07-12T19:33:14.889Z,16.35
2017-07-12T19:35:43.426Z,19.17
2017-07-12T19:38:11.211Z,16.55
2017-07-12T19:40:40.996Z,17.33
2017-07-12T19:43:09.104Z,16.62
2017-07-12T19:45:37.713Z,18.55
2017-07-12T19:48:05.501Z,19.58
2017-07-12T19:50:33.298Z,17.65
2017-07-12T19:53:01.088Z,17.73
2017-07-12T19:55:28.852Z,18.10
2017-07-12T19:57:56.667Z,19.92
2017-07-12T20:00:24.429Z,17.83
2017-07-12T20:02:52.187Z,20.25
2017-07-12T20:05:20.148Z,21.45
2017-07-12T20:07:50.443Z,21.67
2017-07-12T20:10:18.361Z,21.83
2017-07-12T20:12:46.953Z,20.90
2017-07-12T20:15:14.734Z,19.23
2017-07-12T20:17:42.586Z,20.45
2017-07-12T20:20:10.353Z,19.87
2017-07-12T20:22:38.207Z,21.70
2017-07-12T20:25:06.010Z,23.52
2017-07-12T20:27:33.780Z,21.33
2017-07-12T20:30:01.722Z,22.95
2017-07-12T20:32:29.490Z,21.70
2017-07-12T20:34:57.316Z,18.30
2017-07-12T20:37:25.849Z,20.62
2017-07-12T20:39:53.690Z,22.10
2017-07-12T20:42:21.509Z,22.75
2017-07-12T20:44:49.489Z,21.73
2017-07-12T20:47:18.130Z,19.45
2017-07-12T20:49:45.942Z,23.23
2017-07-12T20:52:13.783Z,19.50
2017-07-12T20:54:42.417Z,20.48
2017-07-12T20:57:10.221Z,20.52
2017-07-12T20:59:38.895Z,20.20
2017-07-12T21:02:06.717Z,17.08
2017-07-12T21:04:34.562Z,17.60
2017-07-12T21:07:02.444Z,18.67
2017-07-12T21:09:30.230Z,17.02
2017-07-12T21:11:58.088Z,15.05
2017-07-12T21:14:25.851Z,13.25
2017-07-12T21:16:53.620Z,13.90
2017-07-12T21:19:21.424Z,14.65
2017-07-12T21:21:49.283Z,12.15
2017-07-12T21:24:17.870Z,11.85
2017-07-12T21:26:46.411Z,12.15
2017-07-12T21:29:14.210Z,11.45
2017-07-12T21:31:42.079Z,10.25
2017-07-12T21:34:09.856Z,10.85
2017-07-12T21:36:37.670Z,10.32
2017-07-12T21:39:05.499Z,8.50
2017-07-12T21:41:33.285Z,9.18
2017-07-12T21:44:01.095Z,8.80
2017-07-12T21:46:29.607Z,8.40
2017-07-12T21:48:57.444Z,8.82
2017-07-12T21:51:25.205Z,8.90
2017-07-12T21:54:10.638Z,7.87
2017-07-12T21:56:56.110Z,8.15
2017-07-12T21:59:41.470Z,7.15
2017-07-12T22:02:26.744Z,7.53
2017-07-12T22:05:12.235Z,6.78
2017-07-12T22:07:57.589Z,6.15
2017-07-12T22:10:42.847Z,7.37
2017-07-12T22:13:27.957Z,6.72
2017-07-12T22:16:13.335Z,6.07
2017-07-12T22:18:59.347Z,6.25
2017-07-12T22:21:44.882Z,7.12
2017-07-12T22:24:30.202Z,7.20
2017-07-12T22:27:15.574Z,6.57
2017-07-12T22:30:01.045Z,7.78
2017-07-12T22:32:47.116Z,5.65
2017-07-12T22:35:32.516Z,6.00
2017-07-12T22:38:06.103Z,4.95
2017-07-12T22:40:40.221Z,5.30
2017-07-12T22:43:13.727Z,5.15
2017-07-12T22:45:41.495Z,4.95
2017-07-12T22:48:09.250Z,5.85
2017-07-12T22:50:37.022Z,5.65
2017-07-12T22:53:04.775Z,5.95
2017-07-12T22:55:32.607Z,4.62
2017-07-12T22:58:01.135Z,4.80
2017-07-12T23:00:28.887Z,4.65
2017-07-12T23:02:56.689Z,4.60
2017-07-12T23:05:24.439Z,5.68
2017-07-12T23:07:52.260Z,5.15
2017-07-12T23:10:20.010Z,5.30
2017-07-12T23:12:48.540Z,4.65
2017-07-12T23:15:16.319Z,5.05
2017-07-12T23:17:44.076Z,4.45
2017-07-12T23:20:11.874Z,5.37
2017-07-12T23:22:39.626Z,4.57
2017-07-12T23:25:07.370Z,4.72
2017-07-12T23:27:35.157Z,3.60
2017-07-12T23:30:03.686Z,4.20
2017-07-12T23:32:31.532Z,4.78
2017-07-12T23:34:59.283Z,4.47
2017-07-12T23:37:27.036Z,4.35
2017-07-12T23:39:54.816Z,4.35
2017-07-12T23:42:22.566Z,4.68
2017-07-12T23:44:50.390Z,4.85
2017-07-12T23:47:18.134Z,3.55
2017-07-12T23:49:45.884Z,4.00
2017-07-12T23:52:13.666Z,3.85
2017-07-12T23:54:41.425Z,3.80
2017-07-12T23:57:09.232Z,2.15
2017-07-12T23:59:36.993Z,2.10
